Time;durP1;ratioP1;P1;durP2;ratioP2;P2;SDS_P1;SDS_P2;PMS_P1;PMS_P2;Temp;Humidity;BMP_temperature;BMP_pressure;BME280_temperature;BME280_humidity;BME280_pressure;Samples;Min_cycle;Max_cycle;Signal;HPM_P1;HPM_P2
2022/05/11 00:01:34;;;;;;;15.95;11.73;;;;;;;;;;5012706;28;20018;-78
2022/05/11 00:04:01;;;;;;;20.90;14.68;;;;;;;;;;5013526;28;20026;-78
2022/05/11 00:06:28;;;;;;;15.32;12.57;;;;;;;;;;5011678;28;20497;-78
2022/05/11 00:08:54;;;;;;;14.13;12.02;;;;;;;;;;5013480;28;20206;-78
2022/05/11 00:11:21;;;;;;;15.43;12.00;;;;;;;;;;5012136;28;20022;-78
2022/05/11 00:13:47;;;;;;;14.98;12.10;;;;;;;;;;5012113;28;20022;-77
2022/05/11 00:16:13;;;;;;;14.65;11.80;;;;;;;;;;5013294;28;20029;-78
2022/05/11 00:18:40;;;;;;;15.10;11.30;;;;;;;;;;5011996;28;20057;-78
2022/05/11 00:21:06;;;;;;;18.20;12.70;;;;;;;;;;5012932;28;20022;-78
2022/05/11 00:23:32;;;;;;;16.48;12.35;;;;;;;;;;5011519;28;20029;-79
2022/05/11 00:25:58;;;;;;;18.77;13.38;;;;;;;;;;5012839;28;20120;-79
2022/05/11 00:28:25;;;;;;;20.05;13.90;;;;;;;;;;5013181;28;20032;-79
2022/05/11 00:30:51;;;;;;;22.70;15.25;;;;;;;;;;5013084;28;20022;-81
2022/05/11 00:33:18;;;;;;;21.30;16.42;;;;;;;;;;5011740;28;20392;-79
2022/05/11 00:35:45;;;;;;;21.92;14.60;;;;;;;;;;5011644;28;20389;-78
2022/05/11 00:38:12;;;;;;;22.83;15.95;;;;;;;;;;5012979;28;20504;-79
2022/05/11 00:40:42;;;;;;;30.30;17.38;;;;;;;;;;5011547;28;20053;-79
2022/05/11 00:43:09;;;;;;;29.98;16.55;;;;;;;;;;5012661;28;20080;-78
2022/05/11 00:45:36;;;;;;;21.55;14.63;;;;;;;;;;5012710;28;20026;-78
2022/05/11 00:49:33;;;;;;;27.90;15.63;;;;;;;;;;5013040;28;20026;-79
2022/05/11 00:50:52;;;;;;;29.25;17.08;;;;;;;;;;5012354;28;20029;-80
2022/05/11 00:53:18;;;;;;;19.38;16.23;;;;;;;;;;5011377;28;20030;-78
2022/05/11 00:55:47;;;;;;;20.88;16.98;;;;;;;;;;5011401;28;20049;-79
2022/05/11 00:58:13;;;;;;;23.92;17.95;;;;;;;;;;5011272;28;20081;-78
2022/05/11 01:00:39;;;;;;;23.10;16.90;;;;;;;;;;5012268;28;20511;-79
2022/05/11 01:03:11;;;;;;;23.90;16.60;;;;;;;;;;5011281;28;20030;-78
2022/05/11 01:05:37;;;;;;;19.88;17.13;;;;;;;;;;5012088;28;20049;-80
2022/05/11 01:08:04;;;;;;;26.48;17.98;;;;;;;;;;5011123;28;20046;-80
2022/05/11 01:10:32;;;;;;;19.50;15.93;;;;;;;;;;5011225;28;20096;-79
2022/05/11 01:13:00;;;;;;;23.77;17.60;;;;;;;;;;5010760;28;20041;-78
2022/05/11 01:15:29;;;;;;;21.00;16.45;;;;;;;;;;5012168;28;20025;-79
2022/05/11 01:17:55;;;;;;;22.35;17.65;;;;;;;;;;5012575;28;20018;-80
2022/05/11 01:20:22;;;;;;;24.95;16.77;;;;;;;;;;5011112;28;20022;-78
2022/05/11 01:23:00;;;;;;;24.05;18.38;;;;;;;;;;5012634;28;20022;-79
2022/05/11 01:25:27;;;;;;;25.63;19.10;;;;;;;;;;5010831;28;20096;-78
2022/05/11 01:28:00;;;;;;;21.45;16.10;;;;;;;;;;4999220;28;20018;-78
2022/05/11 01:30:26;;;;;;;;;;;;;;;;;;5005641;28;20030;-78
2022/05/11 01:32:54;;;;;;;21.02;15.80;;;;;;;;;;4992535;28;19959;-78
2022/05/11 01:35:34;;;;;;;19.75;15.90;;;;;;;;;;5007671;28;20474;-79
2022/05/11 01:38:16;;;;;;;18.05;16.15;;;;;;;;;;4992453;28;20026;-79
2022/05/11 01:40:42;;;;;;;21.88;16.40;;;;;;;;;;4992295;28;20054;-78
2022/05/11 01:43:08;;;;;;;21.08;14.77;;;;;;;;;;5007234;28;20113;-78
2022/05/11 01:45:34;;;;;;;20.80;14.60;;;;;;;;;;5007389;28;20031;-79
2022/05/11 01:48:00;;;;;;;20.90;15.45;;;;;;;;;;5007499;28;20488;-79
2022/05/11 01:50:26;;;;;;;25.20;16.63;;;;;;;;;;5007205;28;20025;-81
2022/05/11 01:52:52;;;;;;;24.23;16.00;;;;;;;;;;5003021;28;20117;-81
2022/05/11 01:55:18;;;;;;;20.75;16.40;;;;;;;;;;5010826;28;20026;-78
2022/05/11 01:57:44;;;;;;;19.73;14.57;;;;;;;;;;5011752;28;20473;-78
2022/05/11 02:00:11;;;;;;;20.73;16.17;;;;;;;;;;5010645;28;20077;-78
2022/05/11 02:02:37;;;;;;;24.70;16.55;;;;;;;;;;5011637;28;20029;-80
2022/05/11 02:07:49;;;;;;;24.08;17.67;;;;;;;;;;5011723;28;20049;-78
2022/05/11 02:10:16;;;;;;;21.15;16.38;;;;;;;;;;5010625;28;20384;-79
2022/05/11 02:12:42;;;;;;;21.15;14.70;;;;;;;;;;5011502;28;20440;-78
2022/05/11 02:15:09;;;;;;;19.00;13.77;;;;;;;;;;5011848;28;20035;-79
2022/05/11 02:17:35;;;;;;;24.23;15.23;;;;;;;;;;5011959;28;20037;-79
2022/05/11 02:20:01;;;;;;;20.88;15.68;;;;;;;;;;5012208;28;20018;-83
2022/05/11 02:22:28;;;;;;;23.42;14.85;;;;;;;;;;5010948;28;20032;-79
2022/05/11 02:24:54;;;;;;;22.55;15.27;;;;;;;;;;5011061;28;20487;-79
2022/05/11 02:27:20;;;;;;;18.40;13.40;;;;;;;;;;5014442;28;20034;-80
2022/05/11 02:29:46;;;;;;;23.70;15.77;;;;;;;;;;5005608;28;20109;-82
2022/05/11 02:32:12;;;;;;;18.17;13.77;;;;;;;;;;5013792;28;20080;-81
2022/05/11 02:37:23;;;;;;;18.88;13.50;;;;;;;;;;5015092;28;20044;-80
2022/05/11 02:39:49;;;;;;;17.45;14.55;;;;;;;;;;5014447;28;20485;-81
2022/05/11 02:42:16;;;;;;;18.88;13.07;;;;;;;;;;5013615;28;20032;-82
2022/05/11 02:44:42;;;;;;;23.50;15.63;;;;;;;;;;5005623;28;20492;-82
2022/05/11 02:47:08;;;;;;;19.67;14.85;;;;;;;;;;5008117;28;20034;-82
2022/05/11 02:49:34;;;;;;;22.63;15.20;;;;;;;;;;5013534;28;20049;-82
2022/05/11 02:52:00;;;;;;;19.73;15.35;;;;;;;;;;5005685;28;20065;-82
2022/05/11 02:54:26;;;;;;;28.35;16.02;;;;;;;;;;5013554;28;20076;-82
2022/05/11 02:56:53;;;;;;;23.17;16.15;;;;;;;;;;5010373;28;20056;-80
2022/05/11 02:59:19;;;;;;;21.15;15.55;;;;;;;;;;5013391;28;20026;-82
2022/05/11 03:01:45;;;;;;;27.05;15.90;;;;;;;;;;5014825;28;20024;-82
2022/05/11 03:04:11;;;;;;;20.55;14.57;;;;;;;;;;5002340;28;20141;-81
2022/05/11 03:06:37;;;;;;;19.90;15.45;;;;;;;;;;5012704;28;20082;-80
2022/05/11 03:09:03;;;;;;;23.05;15.80;;;;;;;;;;5014318;28;20021;-80
2022/05/11 03:11:29;;;;;;;32.50;15.95;;;;;;;;;;5012875;28;20037;-80
2022/05/11 03:13:55;;;;;;;21.60;16.52;;;;;;;;;;5015590;28;20021;-81
2022/05/11 03:16:21;;;;;;;24.20;17.23;;;;;;;;;;5012892;28;20034;-80
2022/05/11 03:18:47;;;;;;;19.63;15.13;;;;;;;;;;5007685;28;20040;-80
2022/05/11 03:21:13;;;;;;;21.30;15.43;;;;;;;;;;5012679;28;20117;-80
2022/05/11 03:23:39;;;;;;;30.58;19.58;;;;;;;;;;5012846;28;20045;-81
2022/05/11 03:26:05;;;;;;;29.10;18.73;;;;;;;;;;5009960;28;20065;-80
2022/05/11 03:28:31;;;;;;;30.05;18.23;;;;;;;;;;5014093;28;20022;-82
2022/05/11 03:30:57;;;;;;;20.67;15.50;;;;;;;;;;5007316;28;20014;-81
2022/05/11 03:36:08;;;;;;;24.05;15.13;;;;;;;;;;5012072;28;20028;-80
2022/05/11 03:38:34;;;;;;;19.40;17.00;;;;;;;;;;5012419;28;20469;-82
2022/05/11 03:41:00;;;;;;;23.55;16.27;;;;;;;;;;5012431;28;20026;-81
2022/05/11 03:43:26;;;;;;;24.13;16.20;;;;;;;;;;5012431;28;20030;-81
2022/05/11 03:45:52;;;;;;;22.10;16.40;;;;;;;;;;5012978;28;20478;-80
2022/05/11 03:48:18;;;;;;;26.17;14.52;;;;;;;;;;5011831;28;20014;-79
2022/05/11 03:50:44;;;;;;;19.70;14.50;;;;;;;;;;5012836;28;20080;-79
2022/05/11 03:53:10;;;;;;;17.85;14.43;;;;;;;;;;5012315;28;20112;-80
2022/05/11 03:55:36;;;;;;;23.42;14.20;;;;;;;;;;5009265;28;20014;-79
2022/05/11 03:58:02;;;;;;;17.70;14.85;;;;;;;;;;4998331;28;20027;-78
2022/05/11 04:00:28;;;;;;;18.98;13.35;;;;;;;;;;5002716;28;20013;-79
2022/05/11 04:02:55;;;;;;;18.23;13.77;;;;;;;;;;5007469;28;20163;-80
2022/05/11 04:05:22;;;;;;;30.42;15.13;;;;;;;;;;5011775;28;20026;-78
2022/05/11 04:07:48;;;;;;;31.15;14.63;;;;;;;;;;5012953;28;20112;-79
2022/05/11 04:10:15;;;;;;;17.88;13.57;;;;;;;;;;5006243;28;20029;-79
2022/05/11 04:12:42;;;;;;;22.00;14.18;;;;;;;;;;5000520;28;20532;-79
2022/05/11 04:15:08;;;;;;;27.83;15.02;;;;;;;;;;5008507;28;20034;-79
2022/05/11 04:17:35;;;;;;;19.02;14.90;;;;;;;;;;5011703;28;20496;-86
2022/05/11 04:20:01;;;;;;;24.50;16.10;;;;;;;;;;5012539;28;20465;-82
2022/05/11 04:22:27;;;;;;;17.55;13.23;;;;;;;;;;5012278;28;20022;-81
2022/05/11 04:24:53;;;;;;;20.45;14.18;;;;;;;;;;5012038;28;20470;-81
2022/05/11 04:27:19;;;;;;;24.73;15.50;;;;;;;;;;5013131;28;20077;-75
2022/05/11 04:29:45;;;;;;;19.70;13.55;;;;;;;;;;5011724;28;20045;-78
2022/05/11 04:32:14;;;;;;;18.27;12.70;;;;;;;;;;5012200;28;20033;-78
2022/05/11 04:34:41;;;;;;;21.98;13.55;;;;;;;;;;5012022;28;20014;-78
2022/05/11 04:37:07;;;;;;;21.60;14.27;;;;;;;;;;5012315;28;20453;-78
2022/05/11 04:39:34;;;;;;;27.63;14.13;;;;;;;;;;5012862;28;20053;-76
2022/05/11 04:42:00;;;;;;;17.98;13.40;;;;;;;;;;5013037;28;20022;-76
2022/05/11 04:44:26;;;;;;;24.67;14.57;;;;;;;;;;5012244;28;20053;-74
2022/05/11 04:46:52;;;;;;;27.45;15.73;;;;;;;;;;5011273;28;20033;-75
2022/05/11 04:49:21;;;;;;;18.02;13.57;;;;;;;;;;5010888;28;20066;-79
2022/05/11 04:51:48;;;;;;;19.85;13.13;;;;;;;;;;5012316;28;20377;-77
2022/05/11 04:54:14;;;;;;;20.55;15.27;;;;;;;;;;5011083;28;20397;-76
2022/05/11 04:56:41;;;;;;;20.83;12.63;;;;;;;;;;5011195;28;20104;-76
2022/05/11 04:59:08;;;;;;;24.48;15.30;;;;;;;;;;5008951;28;20117;-77
2022/05/11 05:01:34;;;;;;;21.15;14.68;;;;;;;;;;5011418;28;20021;-78
2022/05/11 05:04:01;;;;;;;24.08;12.73;;;;;;;;;;5007866;28;20358;-77
2022/05/11 05:06:28;;;;;;;17.33;12.48;;;;;;;;;;5001650;28;20068;-78
2022/05/11 05:08:55;;;;;;;20.58;14.45;;;;;;;;;;5010634;28;20021;-78
2022/05/11 05:11:21;;;;;;;16.92;12.95;;;;;;;;;;5009926;28;20153;-78
2022/05/11 05:13:47;;;;;;;15.60;11.38;;;;;;;;;;5009517;28;20042;-78
2022/05/11 05:16:13;;;;;;;16.85;11.20;;;;;;;;;;5010267;28;20021;-78
2022/05/11 05:18:39;;;;;;;14.15;10.05;;;;;;;;;;5010157;28;20465;-76
2022/05/11 05:21:06;;;;;;;9.82;8.60;;;;;;;;;;5011625;28;20385;-81
2022/05/11 05:23:34;;;;;;;26.10;11.27;;;;;;;;;;5010905;28;20018;-78
2022/05/11 05:26:02;;;;;;;11.82;8.95;;;;;;;;;;5010588;28;20037;-78
2022/05/11 05:31:15;;;;;;;17.15;11.00;;;;;;;;;;5011277;28;20064;-74
2022/05/11 05:33:41;;;;;;;14.55;10.65;;;;;;;;;;5010310;28;20029;-77
2022/05/11 05:36:07;;;;;;;14.63;11.35;;;;;;;;;;5010591;28;20110;-78
2022/05/11 05:38:36;;;;;;;13.25;10.63;;;;;;;;;;5010472;28;20026;-77
2022/05/11 05:41:03;;;;;;;15.48;11.18;;;;;;;;;;5010437;28;20068;-76
2022/05/11 05:43:29;;;;;;;14.57;11.68;;;;;;;;;;5010572;28;20085;-77
2022/05/11 05:45:55;;;;;;;17.08;10.23;;;;;;;;;;5004033;28;20465;-78
2022/05/11 05:48:22;;;;;;;15.93;11.52;;;;;;;;;;5010628;28;20022;-78
2022/05/11 05:50:49;;;;;;;17.92;11.18;;;;;;;;;;5009961;28;20033;-77
2022/05/11 05:53:19;;;;;;;18.30;12.13;;;;;;;;;;5009917;28;20022;-73
2022/05/11 05:55:49;;;;;;;14.52;10.60;;;;;;;;;;5008959;28;20097;-72
2022/05/11 05:58:16;;;;;;;19.70;11.25;;;;;;;;;;5009939;28;20069;-73
2022/05/11 06:00:43;;;;;;;14.20;8.70;;;;;;;;;;5012671;28;20014;-74
2022/05/11 06:03:09;;;;;;;17.42;11.13;;;;;;;;;;5014586;28;20030;-73
2022/05/11 06:05:35;;;;;;;13.13;9.10;;;;;;;;;;5015305;28;20079;-73
2022/05/11 06:08:01;;;;;;;15.02;9.88;;;;;;;;;;5015074;28;20466;-74
2022/05/11 06:10:27;;;;;;;14.75;9.43;;;;;;;;;;5013168;28;20036;-74
2022/05/11 06:12:53;;;;;;;17.00;10.52;;;;;;;;;;5014624;28;20018;-74
2022/05/11 06:15:19;;;;;;;17.40;9.25;;;;;;;;;;5014819;28;20034;-75
2022/05/11 06:17:45;;;;;;;15.98;10.10;;;;;;;;;;5013382;28;20018;-74
2022/05/11 06:20:12;;;;;;;16.05;11.40;;;;;;;;;;5015394;28;20021;-77
2022/05/11 06:22:38;;;;;;;17.75;10.38;;;;;;;;;;5013912;28;20436;-76
2022/05/11 06:25:05;;;;;;;18.67;10.98;;;;;;;;;;5013786;28;20025;-78
2022/05/11 06:27:31;;;;;;;17.58;10.82;;;;;;;;;;5013709;28;20034;-78
2022/05/11 06:29:58;;;;;;;14.05;10.25;;;;;;;;;;5015091;28;20028;-77
2022/05/11 06:32:25;;;;;;;18.00;10.52;;;;;;;;;;5014895;28;20836;-78
2022/05/11 06:34:51;;;;;;;22.73;11.80;;;;;;;;;;5013994;28;20545;-78
2022/05/11 06:37:18;;;;;;;20.20;12.48;;;;;;;;;;5014671;28;20084;-77
2022/05/11 06:39:44;;;;;;;18.85;12.50;;;;;;;;;;5013718;28;20102;-77
2022/05/11 06:42:12;;;;;;;24.38;14.68;;;;;;;;;;5015206;28;20572;-79
2022/05/11 06:44:38;;;;;;;19.08;12.10;;;;;;;;;;5014847;28;20026;-78
2022/05/11 06:47:04;;;;;;;14.32;11.27;;;;;;;;;;5014693;28;20084;-78
2022/05/11 06:49:31;;;;;;;19.05;13.27;;;;;;;;;;5013513;28;20064;-78
2022/05/11 06:51:57;;;;;;;16.05;10.73;;;;;;;;;;5014295;28;20105;-77
2022/05/11 06:59:57;;;;;;;20.30;11.75;;;;;;;;;;5013613;28;20092;-75
2022/05/11 07:02:24;;;;;;;20.10;12.05;;;;;;;;;;5014498;28;20060;-76
2022/05/11 07:04:50;;;;;;;21.40;10.63;;;;;;;;;;5013324;28;20389;-77
2022/05/11 07:07:17;;;;;;;18.85;10.95;;;;;;;;;;5011819;28;20081;-77
2022/05/11 07:09:43;;;;;;;17.00;10.60;;;;;;;;;;5012554;28;20018;-77
2022/05/11 07:12:21;;;;;;;27.50;17.23;;;;;;;;;;5013312;28;20476;-77
2022/05/11 07:14:52;;;;;;;19.60;15.05;;;;;;;;;;5013435;28;20088;-77
2022/05/11 07:17:25;;;;;;;14.43;11.15;;;;;;;;;;5014211;28;20030;-82
2022/05/11 07:19:51;;;;;;;13.77;10.90;;;;;;;;;;5012930;28;20037;-78
2022/05/11 07:22:17;;;;;;;16.10;10.13;;;;;;;;;;5013274;28;20033;-77
2022/05/11 07:24:43;;;;;;;18.98;11.38;;;;;;;;;;5006431;28;20462;-78
2022/05/11 07:27:09;;;;;;;17.55;10.60;;;;;;;;;;5013310;28;20469;-78
2022/05/11 07:29:36;;;;;;;19.23;12.48;;;;;;;;;;5013485;28;20025;-78
2022/05/11 07:32:02;;;;;;;16.10;12.10;;;;;;;;;;5012492;28;20703;-80
2022/05/11 07:34:29;;;;;;;12.63;9.63;;;;;;;;;;5010205;28;20057;-80
2022/05/11 07:36:55;;;;;;;21.20;14.10;;;;;;;;;;5012148;28;20025;-78
2022/05/11 07:39:24;;;;;;;14.88;10.63;;;;;;;;;;5012015;28;20030;-79
2022/05/11 07:41:51;;;;;;;20.40;11.30;;;;;;;;;;5013897;28;20092;-78
2022/05/11 07:44:17;;;;;;;18.67;10.40;;;;;;;;;;5013614;28;20026;-78
2022/05/11 07:46:44;;;;;;;17.88;11.00;;;;;;;;;;5012560;28;20140;-78
2022/05/11 07:49:10;;;;;;;11.27;9.20;;;;;;;;;;5012495;28;20134;-79
2022/05/11 07:51:37;;;;;;;16.38;10.25;;;;;;;;;;5012404;28;20096;-78
2022/05/11 07:54:04;;;;;;;15.30;10.35;;;;;;;;;;5013717;28;20018;-81
2022/05/11 08:01:59;;;;;;;11.80;9.23;;;;;;;;;;5012629;28;20111;-78
2022/05/11 08:04:25;;;;;;;15.98;10.25;;;;;;;;;;5008911;28;20026;-80
2022/05/11 08:06:51;;;;;;;16.83;10.50;;;;;;;;;;5011051;28;20073;-78
2022/05/11 08:09:18;;;;;;;17.92;10.93;;;;;;;;;;5012554;28;20456;-80
2022/05/11 08:11:45;;;;;;;18.35;11.65;;;;;;;;;;5010397;28;20018;-80
2022/05/11 08:14:14;;;;;;;14.68;10.48;;;;;;;;;;5008964;28;20017;-80
2022/05/11 08:16:40;;;;;;;12.48;8.77;;;;;;;;;;5012442;28;20018;-78
2022/05/11 08:19:06;;;;;;;17.63;7.38;;;;;;;;;;5011424;28;20029;-80
2022/05/11 08:21:33;;;;;;;14.27;7.20;;;;;;;;;;5012469;28;20537;-79
2022/05/11 08:24:00;;;;;;;10.85;8.07;;;;;;;;;;5010344;28;20072;-80
2022/05/11 08:26:26;;;;;;;11.35;7.03;;;;;;;;;;5008391;28;20548;-79
2022/05/11 08:28:52;;;;;;;13.27;6.90;;;;;;;;;;5011048;28;20061;-80
2022/05/11 08:34:04;;;;;;;16.42;9.65;;;;;;;;;;5011961;28;20040;-80
2022/05/11 08:36:30;;;;;;;15.98;9.55;;;;;;;;;;5011206;28;20029;-81
2022/05/11 08:38:59;;;;;;;13.55;9.60;;;;;;;;;;5011055;28;20120;-81
2022/05/11 08:41:28;;;;;;;10.50;6.65;;;;;;;;;;5009894;28;20088;-79
2022/05/11 08:44:05;;;;;;;9.18;6.07;;;;;;;;;;5010976;28;20033;-80
2022/05/11 08:46:38;;;;;;;14.15;8.48;;;;;;;;;;5009018;28;20030;-79
2022/05/11 08:49:11;;;;;;;8.33;6.13;;;;;;;;;;5002647;28;20029;-79
2022/05/11 08:51:49;;;;;;;10.35;6.53;;;;;;;;;;5011725;28;20259;-78
2022/05/11 08:54:15;;;;;;;21.65;15.70;;;;;;;;;;5008238;28;20022;-78
2022/05/11 08:56:43;;;;;;;11.68;6.40;;;;;;;;;;5011991;28;20508;-78
2022/05/11 08:59:12;;;;;;;24.13;14.77;;;;;;;;;;5012207;28;20104;-81
2022/05/11 09:01:42;;;;;;;11.77;6.43;;;;;;;;;;5012033;28;20020;-79
2022/05/11 09:04:11;;;;;;;16.77;9.25;;;;;;;;;;5003064;28;20052;-79
2022/05/11 09:06:38;;;;;;;13.20;7.20;;;;;;;;;;5012006;28;20053;-78
2022/05/11 09:09:05;;;;;;;12.68;7.50;;;;;;;;;;5009044;28;20059;-80
2022/05/11 09:11:34;;;;;;;13.40;7.32;;;;;;;;;;5011800;28;20461;-78
2022/05/11 09:14:00;;;;;;;15.93;11.80;;;;;;;;;;5011695;28;20022;-76
2022/05/11 09:16:28;;;;;;;11.15;6.55;;;;;;;;;;4997140;28;20076;-79
2022/05/11 09:18:56;;;;;;;9.45;6.07;;;;;;;;;;4992556;28;20018;-79
2022/05/11 09:21:32;;;;;;;9.88;6.57;;;;;;;;;;4991259;28;20022;-77
2022/05/11 09:24:21;;;;;;;8.38;5.30;;;;;;;;;;4991325;28;20050;-79
2022/05/11 09:27:00;;;;;;;7.18;5.55;;;;;;;;;;4990967;28;20038;-79
2022/05/11 09:29:31;;;;;;;16.02;6.25;;;;;;;;;;4992185;28;20018;-79
2022/05/11 09:32:19;;;;;;;5.40;3.80;;;;;;;;;;4992134;28;20046;-78
2022/05/11 09:34:45;;;;;;;7.85;4.97;;;;;;;;;;4990752;28;20034;-78
2022/05/11 09:37:23;;;;;;;6.72;4.60;;;;;;;;;;4992153;28;20104;-79
2022/05/11 09:39:54;;;;;;;5.85;3.58;;;;;;;;;;4992169;28;20030;-79
2022/05/11 09:42:26;;;;;;;7.45;4.00;;;;;;;;;;4992406;28;20030;-78
2022/05/11 09:44:54;;;;;;;4.32;3.17;;;;;;;;;;4990911;28;20023;-79
2022/05/11 09:48:02;;;;;;;9.00;3.88;;;;;;;;;;4991934;28;20098;-79
2022/05/11 09:50:28;;;;;;;8.20;4.13;;;;;;;;;;4990892;28;20026;-78
2022/05/11 09:52:57;;;;;;;10.10;5.40;;;;;;;;;;4991335;28;20536;-79
2022/05/11 09:55:29;;;;;;;5.80;4.22;;;;;;;;;;4990419;28;20419;-78
2022/05/11 09:57:57;;;;;;;7.13;3.83;;;;;;;;;;4991670;28;20037;-78
2022/05/11 10:00:33;;;;;;;5.15;3.42;;;;;;;;;;4990542;28;20389;-79
2022/05/11 10:03:04;;;;;;;5.03;3.92;;;;;;;;;;4992083;28;20026;-79
2022/05/11 10:05:36;;;;;;;8.40;3.67;;;;;;;;;;4990411;28;20062;-79
2022/05/11 10:08:06;;;;;;;9.43;3.97;;;;;;;;;;4990611;28;20065;-79
2022/05/11 10:10:36;;;;;;;6.35;3.97;;;;;;;;;;4990501;28;20041;-79
2022/05/11 10:13:20;;;;;;;5.95;3.58;;;;;;;;;;4989975;28;20026;-80
2022/05/11 10:24:12;;;;;;;7.95;3.40;;;;;;;;;;4991616;28;20068;-79
2022/05/11 10:26:43;;;;;;;5.65;3.50;;;;;;;;;;4990571;28;20038;-78
2022/05/11 10:29:24;;;;;;;7.45;3.45;;;;;;;;;;4990470;28;20394;-78
2022/05/11 10:31:54;;;;;;;6.55;3.70;;;;;;;;;;4990522;28;20076;-78
2022/05/11 10:34:31;;;;;;;6.25;4.10;;;;;;;;;;4990308;28;20065;-78
2022/05/11 10:36:57;;;;;;;10.10;4.05;;;;;;;;;;4990052;28;20073;-78
2022/05/11 10:39:31;;;;;;;4.90;3.75;;;;;;;;;;4991993;28;20023;-78
2022/05/11 10:42:03;;;;;;;4.75;3.40;;;;;;;;;;4991983;28;20049;-79
2022/05/11 10:44:38;;;;;;;6.47;3.55;;;;;;;;;;4992010;28;20033;-79
2022/05/11 10:47:07;;;;;;;8.45;3.50;;;;;;;;;;4993583;28;20026;-79
2022/05/11 10:49:42;;;;;;;9.80;4.32;;;;;;;;;;4994791;28;20022;-79
2022/05/11 10:52:18;;;;;;;8.77;3.63;;;;;;;;;;4993665;28;20508;-78
2022/05/11 10:54:57;;;;;;;4.82;3.20;;;;;;;;;;5007125;28;20446;-78
2022/05/11 10:57:23;;;;;;;6.03;3.47;;;;;;;;;;5014533;28;20043;-78
2022/05/11 10:59:49;;;;;;;5.32;3.88;;;;;;;;;;5011709;28;20458;-78
2022/05/11 11:02:27;;;;;;;10.23;4.60;;;;;;;;;;5013151;28;20120;-79
2022/05/11 11:05:02;;;;;;;6.15;3.85;;;;;;;;;;5014655;28;20030;-79
2022/05/11 11:07:52;;;;;;;7.63;3.35;;;;;;;;;;5012686;28;20065;-79
2022/05/11 11:10:29;;;;;;;9.23;3.47;;;;;;;;;;5013927;28;20021;-79
2022/05/11 11:13:22;;;;;;;5.13;3.05;;;;;;;;;;5012783;28;20088;-79
2022/05/11 11:15:50;;;;;;;6.88;3.17;;;;;;;;;;4982188;28;20033;-80
2022/05/11 11:18:20;;;;;;;6.30;4.50;;;;;;;;;;5011056;28;20057;-80
2022/05/11 11:20:47;;;;;;;5.15;3.47;;;;;;;;;;5011150;28;20125;-81
2022/05/11 11:23:13;;;;;;;4.68;3.15;;;;;;;;;;5012316;28;20029;-80
2022/05/11 11:25:44;;;;;;;3.33;2.42;;;;;;;;;;5012533;28;20022;-81
2022/05/11 11:28:12;;;;;;;7.25;3.22;;;;;;;;;;5011213;28;20092;-80
2022/05/11 11:30:43;;;;;;;8.60;3.75;;;;;;;;;;5013259;28;20068;-79
2022/05/11 11:33:15;;;;;;;4.97;3.30;;;;;;;;;;5012649;28;20021;-79
2022/05/11 11:35:55;;;;;;;7.18;3.10;;;;;;;;;;5013600;28;20442;-79
2022/05/11 11:38:24;;;;;;;5.63;3.53;;;;;;;;;;5012514;28;20034;-78
2022/05/11 11:41:20;;;;;;;8.52;3.40;;;;;;;;;;5013930;28;20026;-79
2022/05/11 11:43:52;;;;;;;4.20;2.72;;;;;;;;;;4995557;28;20034;-80
2022/05/11 11:46:41;;;;;;;6.50;3.25;;;;;;;;;;5012115;28;20038;-84
2022/05/11 11:49:10;;;;;;;4.03;2.78;;;;;;;;;;5013903;28;20021;-81
2022/05/11 11:52:00;;;;;;;3.67;2.65;;;;;;;;;;5012945;28;20025;-80
2022/05/11 11:54:39;;;;;;;4.68;2.90;;;;;;;;;;5012305;28;20462;-81
2022/05/11 11:57:05;;;;;;;8.82;3.63;;;;;;;;;;5010760;28;20026;-80
2022/05/11 11:59:33;;;;;;;15.13;10.15;;;;;;;;;;5008678;28;20023;-76
2022/05/11 12:02:08;;;;;;;4.00;2.80;;;;;;;;;;4993872;28;20470;-76
2022/05/11 12:04:40;;;;;;;5.85;3.75;;;;;;;;;;4993466;28;20026;-78
2022/05/11 12:15:37;;;;;;;5.60;3.83;;;;;;;;;;4993377;28;20623;-78
2022/05/11 12:18:20;;;;;;;3.75;2.92;;;;;;;;;;5008419;28;20026;-78
2022/05/11 12:20:46;;;;;;;6.60;4.28;;;;;;;;;;4993481;28;20492;-78
2022/05/11 12:23:18;;;;;;;6.97;3.22;;;;;;;;;;5008403;28;20045;-77
2022/05/11 12:25:50;;;;;;;4.60;3.03;;;;;;;;;;4993101;28;20045;-80
2022/05/11 12:28:25;;;;;;;5.60;3.80;;;;;;;;;;4992903;28;20030;-78
2022/05/11 12:30:51;;;;;;;8.60;7.00;;;;;;;;;;4993130;28;20022;-80
2022/05/11 12:33:22;;;;;;;109.72;89.07;;;;;;;;;;4993447;28;20026;-80
2022/05/11 12:35:49;;;;;;;16.75;13.60;;;;;;;;;;4993310;28;20033;-82
2022/05/11 12:38:24;;;;;;;12.20;10.32;;;;;;;;;;4993757;28;20046;-84
2022/05/11 12:40:52;;;;;;;6.95;3.35;;;;;;;;;;4993689;28;20089;-82
2022/05/11 12:43:24;;;;;;;11.70;10.30;;;;;;;;;;4993135;28;20019;-80
2022/05/11 12:45:51;;;;;;;6.95;4.78;;;;;;;;;;5008229;28;20027;-82
2022/05/11 12:48:18;;;;;;;32.05;26.20;;;;;;;;;;5012523;28;20465;-77
2022/05/11 12:51:04;;;;;;;28.40;25.45;;;;;;;;;;5012447;28;20052;-78
2022/05/11 12:53:31;;;;;;;5.43;4.03;;;;;;;;;;5011318;28;20114;-77
2022/05/11 12:56:18;;;;;;;4.25;3.30;;;;;;;;;;5008762;28;20373;-78
2022/05/11 12:58:46;;;;;;;22.05;18.30;;;;;;;;;;5010201;28;20080;-77
2022/05/11 13:01:14;;;;;;;36.72;32.55;;;;;;;;;;5010870;28;20105;-77
2022/05/11 13:03:41;;;;;;;17.48;14.52;;;;;;;;;;5012482;28;20503;-77
2022/05/11 13:06:11;;;;;;;18.10;16.20;;;;;;;;;;5010636;28;20448;-77
2022/05/11 13:08:41;;;;;;;7.90;6.70;;;;;;;;;;5010158;28;20026;-78
2022/05/11 13:11:08;;;;;;;11.63;9.63;;;;;;;;;;5010873;28;20376;-78
2022/05/11 13:13:35;;;;;;;29.42;26.23;;;;;;;;;;5012308;28;20168;-78
2022/05/11 13:16:09;;;;;;;12.65;11.15;;;;;;;;;;5010646;28;20022;-79
2022/05/11 13:18:35;;;;;;;5.28;4.15;;;;;;;;;;5012296;28;20477;-80
2022/05/11 13:21:02;;;;;;;5.78;4.07;;;;;;;;;;5011069;28;20072;-77
2022/05/11 13:23:33;;;;;;;5.20;4.00;;;;;;;;;;5011900;28;20054;-77
2022/05/11 13:25:59;;;;;;;10.50;6.93;;;;;;;;;;5011527;28;20022;-76
2022/05/11 13:28:25;;;;;;;6.20;4.65;;;;;;;;;;5009882;28;20025;-77
2022/05/11 13:30:56;;;;;;;6.28;5.60;;;;;;;;;;5011993;28;20022;-77
2022/05/11 13:33:42;;;;;;;24.33;20.60;;;;;;;;;;5012119;28;20078;-77
2022/05/11 13:36:18;;;;;;;5.10;4.57;;;;;;;;;;5010595;28;20026;-76
2022/05/11 13:38:55;;;;;;;15.75;14.13;;;;;;;;;;5010417;28;20539;-77
2022/05/11 13:41:23;;;;;;;17.63;11.77;;;;;;;;;;5009996;28;20551;-77
2022/05/11 13:43:53;;;;;;;7.38;4.40;;;;;;;;;;5011425;28;20033;-77
2022/05/11 13:46:30;;;;;;;5.22;3.28;;;;;;;;;;5010324;28;20033;-78
2022/05/11 13:49:15;;;;;;;6.75;4.35;;;;;;;;;;5011916;28;20034;-76
2022/05/11 13:51:41;;;;;;;6.65;4.95;;;;;;;;;;5010496;28;20482;-76
2022/05/11 13:54:28;;;;;;;21.38;18.40;;;;;;;;;;5011692;28;20469;-77
2022/05/11 13:57:01;;;;;;;5.07;3.70;;;;;;;;;;5011811;28;20489;-77
2022/05/11 13:59:28;;;;;;;11.15;9.52;;;;;;;;;;5011588;28;20026;-76
2022/05/11 14:01:54;;;;;;;19.30;15.70;;;;;;;;;;5009415;28;20018;-77
2022/05/11 14:04:33;;;;;;;138.30;120.70;;;;;;;;;;5011499;28;20056;-76
2022/05/11 14:06:59;;;;;;;37.22;31.98;;;;;;;;;;5010103;28;20057;-77
2022/05/11 14:09:26;;;;;;;10.77;8.07;;;;;;;;;;5010333;28;20025;-76
2022/05/11 14:11:52;;;;;;;5.93;5.28;;;;;;;;;;5010136;28;20078;-79
2022/05/11 14:14:18;;;;;;;21.35;16.42;;;;;;;;;;5007993;28;20022;-81
2022/05/11 14:16:44;;;;;;;5.57;4.35;;;;;;;;;;5010357;28;20429;-78
2022/05/11 14:19:11;;;;;;;4.07;3.60;;;;;;;;;;5010322;28;20022;-80
2022/05/11 14:21:40;;;;;;;7.13;6.15;;;;;;;;;;5011811;28;20073;-78
2022/05/11 14:24:06;;;;;;;7.82;3.60;;;;;;;;;;5015033;28;20093;-78
2022/05/11 14:26:32;;;;;;;4.80;3.50;;;;;;;;;;5013718;28;20030;-79
2022/05/11 14:28:58;;;;;;;5.95;3.40;;;;;;;;;;5014162;28;20533;-79
2022/05/11 14:31:25;;;;;;;14.63;12.75;;;;;;;;;;5013242;28;20124;-78
2022/05/11 14:33:53;;;;;;;9.35;5.90;;;;;;;;;;5012426;28;20022;-78
2022/05/11 14:36:19;;;;;;;4.70;3.97;;;;;;;;;;5013704;28;20461;-78
2022/05/11 14:38:45;;;;;;;5.90;4.43;;;;;;;;;;5014708;28;20492;-79
2022/05/11 14:41:11;;;;;;;11.00;9.00;;;;;;;;;;5013713;28;20022;-76
2022/05/11 14:43:37;;;;;;;9.45;4.35;;;;;;;;;;5013656;28;20033;-76
2022/05/11 14:46:05;;;;;;;11.73;8.32;;;;;;;;;;5013348;28;20030;-77
2022/05/11 14:48:36;;;;;;;16.67;5.55;;;;;;;;;;5014475;28;20038;-77
2022/05/11 14:51:05;;;;;;;4.15;3.38;;;;;;;;;;5013439;28;20037;-78
2022/05/11 14:53:32;;;;;;;6.78;6.03;;;;;;;;;;5014626;28;20033;-78
2022/05/11 14:55:58;;;;;;;4.68;3.95;;;;;;;;;;5014623;28;20033;-77
2022/05/11 15:04:05;;;;;;;6.00;4.68;;;;;;;;;;5001296;28;20076;-78
2022/05/11 15:06:33;;;;;;;4.20;3.70;;;;;;;;;;5014314;28;20050;-77
2022/05/11 15:08:59;;;;;;;6.30;3.58;;;;;;;;;;5012599;28;20390;-77
2022/05/11 15:14:10;;;;;;;4.28;3.22;;;;;;;;;;5014017;28;20036;-78
2022/05/11 15:16:39;;;;;;;6.55;3.67;;;;;;;;;;5014253;28;20083;-78
2022/05/11 15:19:05;;;;;;;6.75;4.32;;;;;;;;;;5012658;28;20532;-78
2022/05/11 15:21:31;;;;;;;7.18;3.30;;;;;;;;;;5012568;28;20370;-79
2022/05/11 15:23:57;;;;;;;7.53;3.00;;;;;;;;;;5012939;28;20026;-77
2022/05/11 15:26:23;;;;;;;8.13;5.57;;;;;;;;;;5012232;28;20034;-78